createdAt,value
2023-02-15T00:01:10.236Z,2.22
2023-02-15T00:04:14.956Z,2.22
2023-02-15T00:07:18.019Z,2.21
2023-02-15T00:10:19.776Z,2.21
2023-02-15T00:13:21.413Z,2.19
2023-02-15T00:16:23.195Z,2.17
2023-02-15T00:19:24.909Z,2.17
2023-02-15T00:22:26.601Z,2.14
2023-02-15T00:25:28.201Z,2.12
2023-02-15T00:28:31.030Z,2.12
2023-02-15T00:31:33.595Z,2.16
2023-02-15T00:34:35.279Z,2.21
2023-02-15T00:37:36.898Z,2.21
2023-02-15T00:40:38.494Z,2.21
2023-02-15T00:43:43.140Z,2.20
2023-02-15T00:46:45.065Z,2.20
2023-02-15T00:49:46.681Z,2.21
2023-02-15T00:52:48.246Z,2.21
2023-02-15T00:55:50.379Z,2.21
2023-02-15T00:58:51.943Z,2.21
2023-02-15T01:01:53.584Z,2.23
2023-02-15T01:04:55.167Z,2.22
2023-02-15T01:07:57.770Z,2.21
2023-02-15T01:11:07.250Z,2.21
2023-02-15T01:14:08.875Z,2.20
2023-02-15T01:17:10.570Z,2.19
2023-02-15T01:20:12.951Z,2.19
2023-02-15T01:23:14.865Z,2.19
2023-02-15T01:26:17.840Z,2.19
2023-02-15T01:29:19.576Z,2.20
2023-02-15T01:32:21.107Z,2.21
2023-02-15T01:35:22.868Z,2.21
2023-02-15T01:38:24.510Z,2.21
2023-02-15T01:41:26.124Z,2.20
2023-02-15T01:44:52.860Z,2.19
2023-02-15T01:48:19.260Z,2.20
2023-02-15T01:51:24.494Z,2.21
2023-02-15T01:54:30.894Z,2.20
2023-02-15T01:57:32.636Z,2.19
2023-02-15T02:00:34.547Z,2.18
2023-02-15T02:03:42.241Z,2.18
2023-02-15T02:06:45.722Z,2.18
2023-02-15T02:09:48.565Z,2.18
2023-02-15T02:12:52.750Z,2.19
2023-02-15T02:16:23.939Z,2.19
2023-02-15T02:19:54.305Z,2.19
2023-02-15T02:22:59.008Z,2.20
2023-02-15T02:26:37.031Z,2.17
2023-02-15T02:30:07.535Z,2.12
2023-02-15T02:33:18.781Z,2.08
2023-02-15T02:36:50.880Z,2.07
2023-02-15T02:40:37.769Z,2.07
2023-02-15T02:43:48.967Z,2.07
2023-02-15T02:47:19.455Z,2.06
2023-02-15T02:50:29.878Z,2.07
2023-02-15T02:53:32.411Z,2.07
2023-02-15T02:56:42.911Z,2.05
2023-02-15T02:59:45.957Z,2.04
2023-02-15T03:02:50.730Z,2.04
2023-02-15T03:05:55.614Z,2.04
2023-02-15T03:09:09.586Z,2.04
2023-02-15T03:12:23.401Z,2.04
2023-02-15T03:15:31.664Z,2.04
2023-02-15T03:18:37.661Z,2.02
2023-02-15T03:21:49.643Z,2.00
2023-02-15T03:25:06.421Z,1.99
2023-02-15T03:28:10.875Z,1.99
2023-02-15T03:31:14.386Z,1.98
2023-02-15T03:34:16.762Z,1.97
2023-02-15T03:37:44.135Z,1.96
2023-02-15T03:40:46.817Z,1.95
2023-02-15T03:44:00.684Z,1.95
2023-02-15T03:47:09.630Z,1.96
2023-02-15T03:50:16.969Z,1.94
2023-02-15T03:53:22.349Z,1.92
2023-02-15T03:56:27.521Z,1.89
2023-02-15T03:59:29.123Z,1.85
2023-02-15T04:02:39.664Z,1.81
2023-02-15T04:05:42.675Z,1.72
2023-02-15T04:08:44.384Z,1.66
2023-02-15T04:11:45.944Z,1.62
2023-02-15T04:14:47.594Z,1.57
2023-02-15T04:17:49.212Z,1.58
2023-02-15T04:20:51.434Z,1.61
2023-02-15T04:23:52.957Z,1.58
2023-02-15T04:26:55.212Z,1.53
2023-02-15T04:29:56.788Z,1.48
2023-02-15T04:32:58.435Z,1.48
2023-02-15T04:36:00.791Z,1.47
2023-02-15T04:39:02.698Z,1.47
2023-02-15T04:42:04.456Z,1.47
2023-02-15T04:45:06.344Z,1.46
2023-02-15T04:48:07.968Z,1.45
2023-02-15T04:51:09.656Z,1.45
2023-02-15T04:54:11.267Z,1.45
2023-02-15T04:57:13.616Z,1.42
2023-02-15T05:00:15.613Z,1.41
2023-02-15T05:03:19.549Z,1.41
2023-02-15T05:06:21.548Z,1.38
2023-02-15T05:09:23.252Z,1.16
2023-02-15T05:12:24.807Z,0.94
2023-02-15T05:15:26.691Z,0.92
2023-02-15T05:18:28.368Z,1.06
2023-02-15T05:21:30.044Z,0.98
2023-02-15T05:24:31.746Z,0.93
2023-02-15T05:27:33.359Z,0.86
2023-02-15T05:30:35.143Z,0.76
2023-02-15T05:33:37.058Z,0.65
2023-02-15T05:36:38.607Z,0.56
2023-02-15T05:39:40.314Z,0.61
2023-02-15T05:42:42.019Z,0.63
2023-02-15T05:45:51.729Z,0.63
2023-02-15T05:48:53.362Z,0.72
2023-02-15T05:51:54.982Z,0.76
2023-02-15T05:54:56.516Z,0.76
2023-02-15T05:57:58.260Z,0.72
2023-02-15T06:00:59.843Z,0.68
2023-02-15T06:04:01.471Z,0.76
2023-02-15T06:07:03.139Z,0.72
2023-02-15T06:10:05.358Z,0.62
2023-02-15T06:13:07.464Z,0.70
2023-02-15T06:16:09.064Z,0.77
2023-02-15T06:19:10.551Z,0.88
2023-02-15T06:22:12.148Z,1.02
2023-02-15T06:25:15.038Z,1.13
2023-02-15T06:28:16.739Z,1.18
2023-02-15T06:31:18.419Z,1.25
2023-02-15T06:34:20.039Z,1.32
2023-02-15T06:37:21.903Z,1.39
2023-02-15T06:40:23.601Z,1.42
2023-02-15T06:43:25.248Z,1.44
2023-02-15T06:46:26.970Z,1.46
2023-02-15T06:49:28.504Z,1.49
2023-02-15T06:52:30.301Z,1.53
2023-02-15T06:55:31.900Z,1.57
2023-02-15T06:58:34.877Z,1.60
2023-02-15T07:01:36.556Z,1.64
2023-02-15T07:04:38.234Z,1.67
2023-02-15T07:07:39.949Z,1.70
2023-02-15T07:10:45.226Z,1.74
2023-02-15T07:13:47.843Z,1.77
2023-02-15T07:16:49.423Z,1.78
2023-02-15T07:19:51.039Z,1.77
2023-02-15T07:22:52.736Z,1.77
2023-02-15T07:26:01.531Z,1.80
2023-02-15T07:29:03.519Z,1.81
2023-02-15T07:32:05.032Z,1.85
2023-02-15T07:35:06.681Z,1.88
2023-02-15T07:38:08.271Z,1.96
2023-02-15T07:41:12.448Z,1.99
2023-02-15T07:44:15.377Z,1.99
2023-02-15T07:47:17.500Z,1.99
2023-02-15T07:50:19.207Z,2.05
2023-02-15T07:53:20.729Z,2.10
2023-02-15T07:56:22.370Z,2.11
2023-02-15T07:59:24.069Z,2.15
2023-02-15T08:02:26.261Z,2.23
2023-02-15T08:05:29.708Z,2.28
2023-02-15T08:08:31.352Z,2.36
2023-02-15T08:11:34.034Z,2.48
2023-02-15T08:14:35.865Z,2.52
2023-02-15T08:17:38.057Z,2.57
2023-02-15T08:20:39.829Z,2.55
2023-02-15T08:23:41.336Z,2.59
2023-02-15T08:26:43.898Z,2.66
2023-02-15T08:29:45.390Z,2.81
2023-02-15T08:32:47.174Z,2.98
2023-02-15T08:35:48.580Z,3.10
2023-02-15T08:38:50.265Z,3.10
2023-02-15T08:41:52.112Z,3.09
2023-02-15T08:44:53.969Z,3.19
2023-02-15T08:47:55.713Z,3.23
2023-02-15T08:50:57.298Z,3.35
2023-02-15T08:54:01.824Z,3.47
2023-02-15T08:57:03.595Z,3.75
2023-02-15T09:00:05.764Z,3.88
2023-02-15T09:03:07.628Z,4.23
2023-02-15T09:06:09.131Z,4.57
2023-02-15T09:09:12.000Z,5.05
2023-02-15T09:12:13.758Z,5.37
2023-02-15T09:15:15.652Z,5.81
2023-02-15T09:18:17.155Z,5.93
2023-02-15T09:21:19.798Z,6.38
2023-02-15T09:24:21.550Z,7.55
2023-02-15T09:27:23.256Z,8.75
2023-02-15T09:30:24.885Z,8.89
2023-02-15T09:33:26.716Z,8.77
2023-02-15T09:36:37.832Z,8.54
2023-02-15T09:39:42.484Z,9.97
2023-02-15T09:42:53.323Z,11.25
2023-02-15T09:46:18.837Z,12.46
2023-02-15T09:50:04.282Z,13.35
2023-02-15T09:53:37.178Z,13.35
2023-02-15T09:56:46.573Z,14.14
2023-02-15T10:00:07.191Z,13.63
2023-02-15T10:03:14.316Z,13.63
2023-02-15T10:06:30.983Z,13.60
2023-02-15T10:09:32.726Z,14.28
2023-02-15T10:12:42.311Z,15.03
2023-02-15T10:15:50.016Z,15.68
2023-02-15T10:19:28.622Z,16.17
2023-02-15T10:22:42.721Z,14.74
2023-02-15T10:25:51.339Z,13.22
2023-02-15T10:29:10.427Z,12.67
2023-02-15T10:32:22.119Z,12.38
2023-02-15T10:35:55.092Z,13.09
2023-02-15T10:39:20.350Z,13.14
2023-02-15T10:42:31.811Z,13.97
2023-02-15T10:45:36.350Z,14.11
2023-02-15T10:49:00.889Z,13.16
2023-02-15T10:52:24.610Z,14.11
2023-02-15T10:55:35.403Z,14.30
2023-02-15T10:59:07.703Z,14.35
2023-02-15T11:02:48.961Z,14.44
2023-02-15T11:06:06.815Z,13.95
2023-02-15T11:09:13.795Z,14.19
2023-02-15T11:12:20.292Z,14.38
2023-02-15T11:15:50.552Z,14.20
2023-02-15T11:19:02.006Z,13.78
2023-02-15T11:22:05.744Z,13.92
2023-02-15T11:25:33.697Z,14.64
2023-02-15T11:28:40.247Z,15.55
2023-02-15T11:31:47.864Z,16.33
2023-02-15T11:35:12.419Z,15.81
2023-02-15T11:38:18.860Z,15.08
2023-02-15T11:41:28.513Z,14.60
2023-02-15T11:44:36.079Z,14.38
2023-02-15T11:47:37.681Z,14.76
2023-02-15T11:50:40.156Z,14.93
2023-02-15T11:53:41.815Z,14.73
2023-02-15T11:56:43.445Z,15.21
2023-02-15T11:59:52.542Z,15.55
2023-02-15T12:02:55.880Z,15.53
2023-02-15T12:06:02.686Z,15.23
2023-02-15T12:09:10.108Z,14.23
2023-02-15T12:12:27.670Z,13.56
2023-02-15T12:15:32.934Z,13.05
2023-02-15T12:18:40.118Z,12.56
2023-02-15T12:21:42.637Z,12.23
2023-02-15T12:24:48.358Z,11.82
2023-02-15T12:27:50.729Z,11.48
2023-02-15T12:30:54.682Z,11.26
2023-02-15T12:33:58.006Z,11.15
2023-02-15T12:37:03.162Z,10.98
2023-02-15T12:40:24.397Z,10.73
2023-02-15T12:43:30.949Z,10.55
2023-02-15T12:46:37.889Z,10.42
2023-02-15T12:49:40.054Z,10.15
2023-02-15T12:52:41.755Z,10.05
2023-02-15T12:55:55.387Z,10.06
2023-02-15T12:59:06.391Z,9.93
2023-02-15T13:02:17.626Z,9.83
2023-02-15T13:05:35.253Z,9.80
2023-02-15T13:08:46.307Z,9.86
2023-02-15T13:11:48.033Z,9.85
2023-02-15T13:14:51.497Z,9.85
2023-02-15T13:17:53.359Z,9.88
2023-02-15T13:20:54.992Z,9.79
2023-02-15T13:24:01.498Z,9.73
2023-02-15T13:27:15.068Z,9.76
2023-02-15T13:30:27.659Z,9.73
2023-02-15T13:33:36.194Z,9.88
2023-02-15T13:36:37.747Z,10.02
2023-02-15T13:39:46.904Z,10.14
2023-02-15T13:43:11.470Z,10.23
2023-02-15T13:46:22.723Z,10.43
2023-02-15T13:49:33.284Z,10.75
2023-02-15T13:52:43.280Z,10.98
2023-02-15T13:56:15.146Z,11.05
2023-02-15T13:59:18.997Z,11.12
2023-02-15T14:02:50.052Z,11.09
2023-02-15T14:06:10.754Z,10.96
2023-02-15T14:09:21.639Z,10.76
2023-02-15T14:12:41.657Z,10.60
2023-02-15T14:15:54.283Z,10.42
2023-02-15T14:19:04.700Z,10.26
2023-02-15T14:22:18.518Z,10.10
2023-02-15T14:25:36.226Z,9.94
2023-02-15T14:28:45.088Z,9.78
2023-02-15T14:31:50.051Z,9.60
2023-02-15T14:34:54.658Z,9.43
2023-02-15T14:38:02.714Z,9.30
2023-02-15T14:41:33.670Z,9.15
2023-02-15T14:44:40.987Z,9.00
2023-02-15T14:47:47.436Z,8.89
2023-02-15T14:50:49.280Z,8.79
2023-02-15T14:53:50.917Z,8.67
2023-02-15T14:57:01.604Z,8.57
2023-02-15T15:00:04.976Z,8.47
2023-02-15T15:03:21.318Z,8.37
2023-02-15T15:06:30.842Z,8.36
2023-02-15T15:09:35.130Z,8.35
2023-02-15T15:12:39.263Z,8.30
2023-02-15T15:15:47.894Z,8.30
2023-02-15T15:18:49.826Z,8.18
2023-02-15T15:21:51.754Z,8.03
2023-02-15T15:25:05.703Z,7.86
2023-02-15T15:28:07.554Z,7.70
2023-02-15T15:31:15.358Z,7.58
2023-02-15T15:34:29.502Z,7.43
2023-02-15T15:37:53.095Z,7.25
2023-02-15T15:41:19.916Z,7.00
2023-02-15T15:44:55.857Z,6.87
2023-02-15T15:48:26.784Z,6.76
2023-02-15T15:51:32.262Z,6.48
2023-02-15T15:54:33.921Z,6.22
2023-02-15T15:57:41.094Z,5.99
2023-02-15T16:00:49.641Z,5.74
2023-02-15T16:03:53.220Z,5.51
2023-02-15T16:06:54.945Z,5.25
2023-02-15T16:09:59.592Z,5.01
2023-02-15T16:13:02.046Z,4.78
2023-02-15T16:16:04.269Z,4.53
2023-02-15T16:19:06.434Z,4.33
2023-02-15T16:22:12.092Z,4.13
2023-02-15T16:25:31.671Z,3.93
2023-02-15T16:28:33.508Z,3.76
2023-02-15T16:31:35.243Z,3.61
2023-02-15T16:34:36.935Z,3.45
2023-02-15T16:37:38.499Z,3.31
2023-02-15T16:40:47.882Z,3.19
2023-02-15T16:43:50.839Z,3.04
2023-02-15T16:46:53.380Z,2.91
2023-02-15T16:49:57.439Z,2.78
2023-02-15T16:52:59.370Z,2.68
2023-02-15T16:56:03.903Z,2.59
2023-02-15T16:59:05.533Z,2.48
2023-02-15T17:02:11.616Z,2.38
2023-02-15T17:05:13.108Z,2.29
2023-02-15T17:08:20.716Z,2.21
2023-02-15T17:11:33.959Z,2.13
2023-02-15T17:14:38.998Z,2.05
2023-02-15T17:17:40.548Z,1.96
2023-02-15T17:20:43.456Z,1.90
2023-02-15T17:23:47.610Z,1.81
2023-02-15T17:26:57.001Z,1.73
2023-02-15T17:30:04.583Z,1.65
2023-02-15T17:33:40.403Z,1.55
2023-02-15T17:36:58.415Z,1.38
2023-02-15T17:40:02.027Z,1.06
2023-02-15T17:43:04.134Z,0.80
2023-02-15T17:46:06.091Z,0.66
2023-02-15T17:49:07.680Z,0.58
2023-02-15T17:52:14.183Z,0.53
2023-02-15T17:55:18.791Z,0.47
2023-02-15T17:58:21.192Z,0.39
2023-02-15T18:01:22.997Z,0.32
2023-02-15T18:04:24.501Z,0.23
2023-02-15T18:07:26.357Z,0.15
2023-02-15T18:10:29.201Z,0.09
2023-02-15T18:13:30.654Z,0.08
2023-02-15T18:16:38.209Z,0.12
2023-02-15T18:19:41.563Z,0.14
2023-02-15T18:22:43.203Z,0.10
2023-02-15T18:25:44.797Z,0.03
2023-02-15T18:28:46.408Z,-0.17
2023-02-15T18:31:51.790Z,-0.34
2023-02-15T18:34:55.945Z,-0.52
2023-02-15T18:37:58.764Z,-0.63
2023-02-15T18:41:02.556Z,-0.66
2023-02-15T18:44:12.300Z,-0.64
2023-02-15T18:47:14.068Z,-0.65
2023-02-15T18:50:17.809Z,-0.66
2023-02-15T18:53:20.965Z,-0.70
2023-02-15T18:56:23.049Z,-0.83
2023-02-15T18:59:26.251Z,-0.97
2023-02-15T19:02:28.012Z,-1.04
2023-02-15T19:05:30.058Z,-1.10
2023-02-15T19:08:31.767Z,-1.18
2023-02-15T19:11:33.418Z,-1.26
2023-02-15T19:14:35.039Z,-1.32
2023-02-15T19:17:36.757Z,-1.37
2023-02-15T19:20:39.185Z,-1.43
2023-02-15T19:23:40.798Z,-1.48
2023-02-15T19:26:46.001Z,-1.48
2023-02-15T19:29:48.453Z,-1.49
2023-02-15T19:32:50.191Z,-1.56
2023-02-15T19:35:53.722Z,-1.56
2023-02-15T19:38:55.563Z,-1.46
2023-02-15T19:41:57.094Z,-1.32
2023-02-15T19:44:58.630Z,-1.41
2023-02-15T19:48:01.250Z,-1.76
2023-02-15T19:51:04.198Z,-1.98
2023-02-15T19:54:24.945Z,-2.11
2023-02-15T19:57:26.529Z,-2.24
2023-02-15T20:00:31.371Z,-2.25
2023-02-15T20:03:33.100Z,-2.23
2023-02-15T20:06:34.576Z,-2.22
2023-02-15T20:09:36.271Z,-2.26
2023-02-15T20:12:37.901Z,-2.30
2023-02-15T20:15:39.512Z,-2.38
2023-02-15T20:18:41.255Z,-2.46
2023-02-15T20:21:45.049Z,-2.53
2023-02-15T20:24:46.640Z,-2.56
2023-02-15T20:27:48.721Z,-2.60
2023-02-15T20:30:51.120Z,-2.67
2023-02-15T20:33:52.721Z,-2.70
2023-02-15T20:36:54.473Z,-2.72
2023-02-15T20:39:56.217Z,-2.70
2023-02-15T20:42:57.758Z,-2.58
2023-02-15T20:45:59.617Z,-2.47
2023-02-15T20:49:01.204Z,-2.49
2023-02-15T20:52:03.995Z,-2.65
2023-02-15T20:55:22.114Z,-2.78
2023-02-15T20:58:26.343Z,-2.93
2023-02-15T21:01:27.970Z,-3.04
2023-02-15T21:04:31.651Z,-3.11
2023-02-15T21:07:36.520Z,-3.10
2023-02-15T21:10:38.668Z,-3.09
2023-02-15T21:13:40.389Z,-3.04
2023-02-15T21:16:41.858Z,-3.01
2023-02-15T21:19:43.698Z,-3.05
2023-02-15T21:22:45.204Z,-3.07
2023-02-15T21:25:47.225Z,-3.09
2023-02-15T21:28:49.691Z,-3.09
2023-02-15T21:31:51.652Z,-3.06
2023-02-15T21:34:53.331Z,-3.01
2023-02-15T21:37:55.493Z,-2.93
2023-02-15T21:40:57.600Z,-2.89
2023-02-15T21:43:59.148Z,-2.87
2023-02-15T21:47:00.859Z,-2.88
2023-02-15T21:50:02.644Z,-2.87
2023-02-15T21:53:05.308Z,-2.88
2023-02-15T21:56:10.983Z,-2.90
2023-02-15T21:59:13.693Z,-2.86
2023-02-15T22:02:42.685Z,-2.78
2023-02-15T22:05:44.295Z,-2.72
2023-02-15T22:08:45.968Z,-2.74
2023-02-15T22:11:49.090Z,-2.77
2023-02-15T22:14:52.931Z,-2.78
2023-02-15T22:17:54.547Z,-2.78
2023-02-15T22:20:56.493Z,-2.81
2023-02-15T22:23:57.976Z,-2.84
2023-02-15T22:27:00.284Z,-2.84
2023-02-15T22:30:02.077Z,-2.86
2023-02-15T22:33:03.763Z,-2.88
2023-02-15T22:36:05.700Z,-2.91
2023-02-15T22:39:07.327Z,-2.93
2023-02-15T22:42:24.161Z,-2.96
2023-02-15T22:45:26.261Z,-2.99
2023-02-15T22:48:27.913Z,-3.01
2023-02-15T22:51:29.958Z,-3.02
2023-02-15T22:54:31.488Z,-3.03
2023-02-15T22:57:33.117Z,-3.05
2023-02-15T23:00:39.834Z,-3.06
2023-02-15T23:03:41.499Z,-3.05
2023-02-15T23:06:43.066Z,-3.08
2023-02-15T23:09:45.479Z,-3.13
2023-02-15T23:12:59.104Z,-3.18
2023-02-15T23:16:03.336Z,-3.23
2023-02-15T23:19:06.177Z,-3.26
2023-02-15T23:22:14.324Z,-3.27
2023-02-15T23:25:16.012Z,-3.25
2023-02-15T23:28:33.230Z,-3.24
2023-02-15T23:31:37.083Z,-3.26
2023-02-15T23:34:39.336Z,-3.25
2023-02-15T23:37:41.022Z,-3.25
2023-02-15T23:40:42.688Z,-3.24
2023-02-15T23:43:47.972Z,-3.20
2023-02-15T23:46:50.080Z,-3.23
2023-02-15T23:49:51.659Z,-3.34
2023-02-15T23:52:54.222Z,-3.40
2023-02-15T23:55:56.363Z,-3.46
2023-02-15T23:58:58.063Z,-3.52
